sensor_id;sensor_type;location;lat;lon;timestamp;pressure;altitude;pressure_sealevel;temperature;humidity
35694;BME280;21812;55.536;37.664;2022-09-03T00:00:14;100269.91;;;8.86;67.15
35694;BME280;21812;55.536;37.664;2022-09-03T00:02:51;100274.38;;;8.85;67.25
35694;BME280;21812;55.536;37.664;2022-09-03T00:08:17;100276.75;;;8.80;66.79
35694;BME280;21812;55.536;37.664;2022-09-03T00:10:53;100259.09;;;8.63;66.91
35694;BME280;21812;55.536;37.664;2022-09-03T00:13:34;100276.69;;;8.64;66.79
35694;BME280;21812;55.536;37.664;2022-09-03T00:16:05;100291.03;;;8.63;67.04
35694;BME280;21812;55.536;37.664;2022-09-03T00:18:40;100293.34;;;8.57;67.24
35694;BME280;21812;55.536;37.664;2022-09-03T00:21:11;100271.13;;;8.40;67.64
35694;BME280;21812;55.536;37.664;2022-09-03T00:23:41;100297.31;;;8.53;67.58
35694;BME280;21812;55.536;37.664;2022-09-03T00:26:19;100294.50;;;8.55;67.66
35694;BME280;21812;55.536;37.664;2022-09-03T00:29:01;100302.50;;;8.55;67.81
35694;BME280;21812;55.536;37.664;2022-09-03T00:31:41;100301.16;;;8.59;68.00
35694;BME280;21812;55.536;37.664;2022-09-03T00:34:20;100304.28;;;8.54;67.94
35694;BME280;21812;55.536;37.664;2022-09-03T00:36:48;100306.28;;;8.44;68.13
35694;BME280;21812;55.536;37.664;2022-09-03T00:39:19;100295.91;;;8.33;68.01
35694;BME280;21812;55.536;37.664;2022-09-03T01:00:39;100298.16;;;8.11;68.68
35694;BME280;21812;55.536;37.664;2022-09-03T01:06:36;100328.25;;;8.46;68.69
35694;BME280;21812;55.536;37.664;2022-09-03T01:20:30;100325.31;;;8.31;68.67
35694;BME280;21812;55.536;37.664;2022-09-03T01:23:47;100331.13;;;8.27;69.19
35694;BME280;21812;55.536;37.664;2022-09-03T01:46:08;100344.75;;;8.23;68.56
35694;BME280;21812;55.536;37.664;2022-09-03T01:51:28;100354.41;;;8.25;68.52
35694;BME280;21812;55.536;37.664;2022-09-03T01:59:42;100366.31;;;8.12;68.40
35694;BME280;21812;55.536;37.664;2022-09-03T02:02:17;100358.13;;;8.06;68.43
35694;BME280;21812;55.536;37.664;2022-09-03T02:05:02;100358.97;;;8.06;68.52
35694;BME280;21812;55.536;37.664;2022-09-03T02:07:35;100365.91;;;7.99;68.80
35694;BME280;21812;55.536;37.664;2022-09-03T02:10:05;100381.19;;;7.97;69.00
35694;BME280;21812;55.536;37.664;2022-09-03T02:12:33;100341.19;;;7.80;68.78
35694;BME280;21812;55.536;37.664;2022-09-03T02:15:03;100355.84;;;7.85;68.83
35694;BME280;21812;55.536;37.664;2022-09-03T02:17:31;100377.56;;;7.98;68.75
35694;BME280;21812;55.536;37.664;2022-09-03T02:20:03;100386.50;;;7.97;68.80
35694;BME280;21812;55.536;37.664;2022-09-03T02:22:31;100388.63;;;7.93;68.97
35694;BME280;21812;55.536;37.664;2022-09-03T02:24:58;100398.06;;;7.88;69.12
35694;BME280;21812;55.536;37.664;2022-09-03T02:27:24;100392.06;;;7.86;69.09
35694;BME280;21812;55.536;37.664;2022-09-03T02:29:50;100390.56;;;7.83;69.18
35694;BME280;21812;55.536;37.664;2022-09-03T02:32:16;100384.72;;;7.79;69.17
35694;BME280;21812;55.536;37.664;2022-09-03T02:34:42;100395.66;;;7.76;69.20
35694;BME280;21812;55.536;37.664;2022-09-03T02:37:15;100388.03;;;7.73;69.35
35694;BME280;21812;55.536;37.664;2022-09-03T02:39:41;100394.00;;;7.75;69.51
35694;BME280;21812;55.536;37.664;2022-09-03T02:42:09;100374.50;;;7.67;69.64
35694;BME280;21812;55.536;37.664;2022-09-03T02:44:41;100380.97;;;7.64;69.40
35694;BME280;21812;55.536;37.664;2022-09-03T02:47:09;100397.66;;;7.74;69.56
35694;BME280;21812;55.536;37.664;2022-09-03T02:49:35;100408.28;;;7.74;69.56
35694;BME280;21812;55.536;37.664;2022-09-03T02:52:04;100375.06;;;7.52;69.52
35694;BME280;21812;55.536;37.664;2022-09-03T02:54:32;100407.75;;;7.71;69.25
35694;BME280;21812;55.536;37.664;2022-09-03T02:57:01;100410.88;;;7.66;69.60
35694;BME280;21812;55.536;37.664;2022-09-03T02:59:27;100409.53;;;7.62;69.63
35694;BME280;21812;55.536;37.664;2022-09-03T03:01:55;100412.34;;;7.60;69.95
35694;BME280;21812;55.536;37.664;2022-09-03T03:04:21;100415.16;;;7.59;69.98
35694;BME280;21812;55.536;37.664;2022-09-03T03:06:47;100403.69;;;7.58;70.06
35694;BME280;21812;55.536;37.664;2022-09-03T03:09:16;100423.88;;;7.69;70.00
35694;BME280;21812;55.536;37.664;2022-09-03T03:11:42;100411.28;;;7.71;69.83
35694;BME280;21812;55.536;37.664;2022-09-03T03:14:08;100420.22;;;7.70;69.63
35694;BME280;21812;55.536;37.664;2022-09-03T03:16:33;100423.56;;;7.72;69.81
35694;BME280;21812;55.536;37.664;2022-09-03T03:18:59;100423.88;;;7.69;69.44
35694;BME280;21812;55.536;37.664;2022-09-03T03:21:25;100426.31;;;7.62;70.11
35694;BME280;21812;55.536;37.664;2022-09-03T03:23:51;100420.41;;;7.51;70.70
35694;BME280;21812;55.536;37.664;2022-09-03T03:26:18;100368.69;;;7.27;70.61
35694;BME280;21812;55.536;37.664;2022-09-03T03:28:46;100391.47;;;7.48;70.30
35694;BME280;21812;55.536;37.664;2022-09-03T03:31:16;100430.91;;;7.78;69.91
35694;BME280;21812;55.536;37.664;2022-09-03T03:33:42;100427.81;;;7.83;69.77
35694;BME280;21812;55.536;37.664;2022-09-03T03:36:11;100412.47;;;7.77;69.69
35694;BME280;21812;55.536;37.664;2022-09-03T03:38:37;100420.34;;;7.87;69.61
35694;BME280;21812;55.536;37.664;2022-09-03T03:41:11;100422.53;;;7.91;69.60
35694;BME280;21812;55.536;37.664;2022-09-03T03:43:38;100426.88;;;7.92;69.48
35694;BME280;21812;55.536;37.664;2022-09-03T03:46:04;100431.88;;;7.95;69.58
35694;BME280;21812;55.536;37.664;2022-09-03T03:48:30;100428.69;;;7.92;69.55
35694;BME280;21812;55.536;37.664;2022-09-03T03:51:00;100408.75;;;7.70;69.73
35694;BME280;21812;55.536;37.664;2022-09-03T03:53:25;100442.31;;;7.89;69.73
35694;BME280;21812;55.536;37.664;2022-09-03T03:55:56;100442.66;;;7.94;70.07
35694;BME280;21812;55.536;37.664;2022-09-03T03:58:22;100443.34;;;7.96;70.17
35694;BME280;21812;55.536;37.664;2022-09-03T04:00:49;100447.69;;;7.97;69.83
35694;BME280;21812;55.536;37.664;2022-09-03T04:03:15;100449.66;;;7.95;69.87
35694;BME280;21812;55.536;37.664;2022-09-03T04:05:41;100453.81;;;7.97;69.46
35694;BME280;21812;55.536;37.664;2022-09-03T04:08:06;100455.34;;;8.00;69.35
35694;BME280;21812;55.536;37.664;2022-09-03T04:10:32;100458.16;;;7.98;69.45
35694;BME280;21812;55.536;37.664;2022-09-03T04:12:57;100465.66;;;8.03;69.36
35694;BME280;21812;55.536;37.664;2022-09-03T04:15:23;100461.19;;;8.03;69.23
35694;BME280;21812;55.536;37.664;2022-09-03T04:17:49;100465.22;;;8.08;69.50
35694;BME280;21812;55.536;37.664;2022-09-03T04:20:15;100471.50;;;8.07;68.92
35694;BME280;21812;55.536;37.664;2022-09-03T04:22:40;100470.38;;;8.09;69.00
35694;BME280;21812;55.536;37.664;2022-09-03T04:25:06;100472.88;;;8.11;69.27
35694;BME280;21812;55.536;37.664;2022-09-03T04:27:32;100464.44;;;8.15;69.24
35694;BME280;21812;55.536;37.664;2022-09-03T04:29:58;100463.59;;;8.15;69.12
35694;BME280;21812;55.536;37.664;2022-09-03T04:32:23;100469.75;;;8.15;69.05
35694;BME280;21812;55.536;37.664;2022-09-03T04:35:07;100475.16;;;8.32;69.28
35694;BME280;21812;55.536;37.664;2022-09-03T04:37:33;100466.41;;;8.13;69.01
35694;BME280;21812;55.536;37.664;2022-09-03T04:39:59;100477.06;;;8.13;69.54
35694;BME280;21812;55.536;37.664;2022-09-03T04:42:24;100468.59;;;8.18;69.60
35694;BME280;21812;55.536;37.664;2022-09-03T04:44:50;100467.63;;;8.19;69.27
35694;BME280;21812;55.536;37.664;2022-09-03T04:47:16;100469.66;;;8.25;69.58
35694;BME280;21812;55.536;37.664;2022-09-03T04:49:41;100482.31;;;8.31;69.20
35694;BME280;21812;55.536;37.664;2022-09-03T04:52:07;100482.69;;;8.36;69.28
35694;BME280;21812;55.536;37.664;2022-09-03T04:54:34;100479.69;;;8.39;69.32
35694;BME280;21812;55.536;37.664;2022-09-03T04:56:59;100473.41;;;8.40;68.57
35694;BME280;21812;55.536;37.664;2022-09-03T04:59:25;100475.13;;;8.41;68.96
35694;BME280;21812;55.536;37.664;2022-09-03T05:01:51;100468.63;;;8.44;69.11
35694;BME280;21812;55.536;37.664;2022-09-03T05:04:21;100469.31;;;8.46;69.12
35694;BME280;21812;55.536;37.664;2022-09-03T05:06:46;100471.13;;;8.46;69.10
35694;BME280;21812;55.536;37.664;2022-09-03T05:09:12;100475.31;;;8.48;69.25
35694;BME280;21812;55.536;37.664;2022-09-03T05:11:38;100476.66;;;8.52;68.98
35694;BME280;21812;55.536;37.664;2022-09-03T05:14:04;100480.00;;;8.54;68.98
35694;BME280;21812;55.536;37.664;2022-09-03T05:16:36;100482.19;;;8.59;68.94
35694;BME280;21812;55.536;37.664;2022-09-03T05:19:02;100475.41;;;8.65;68.73
35694;BME280;21812;55.536;37.664;2022-09-03T05:21:30;100480.06;;;8.63;68.45
35694;BME280;21812;55.536;37.664;2022-09-03T05:23:58;100484.38;;;8.64;68.86
35694;BME280;21812;55.536;37.664;2022-09-03T05:26:29;100485.03;;;8.66;68.93
35694;BME280;21812;55.536;37.664;2022-09-03T05:28:57;100474.66;;;8.54;68.99
35694;BME280;21812;55.536;37.664;2022-09-03T05:31:25;100488.53;;;8.66;68.73
35694;BME280;21812;55.536;37.664;2022-09-03T05:33:54;100494.38;;;8.70;68.67
35694;BME280;21812;55.536;37.664;2022-09-03T05:36:24;100494.75;;;8.75;69.03
35694;BME280;21812;55.536;37.664;2022-09-03T05:38:50;100502.41;;;8.78;69.24
35694;BME280;21812;55.536;37.664;2022-09-03T05:41:20;100489.78;;;8.80;68.94
35694;BME280;21812;55.536;37.664;2022-09-03T05:43:51;100469.59;;;8.69;69.15
35694;BME280;21812;55.536;37.664;2022-09-03T05:46:21;100475.13;;;8.76;68.91
35694;BME280;21812;55.536;37.664;2022-09-03T05:48:50;100503.00;;;8.98;68.53
35694;BME280;21812;55.536;37.664;2022-09-03T05:51:16;100508.16;;;8.99;68.62
35694;BME280;21812;55.536;37.664;2022-09-03T05:53:44;100473.00;;;8.88;68.70
35694;BME280;21812;55.536;37.664;2022-09-03T05:56:21;100507.22;;;9.17;68.19
35694;BME280;21812;55.536;37.664;2022-09-03T05:58:52;100511.53;;;9.10;67.75
35694;BME280;21812;55.536;37.664;2022-09-03T06:01:32;100516.75;;;9.19;67.94
35694;BME280;21812;55.536;37.664;2022-09-03T06:04:03;100507.75;;;9.20;68.04
35694;BME280;21812;55.536;37.664;2022-09-03T06:06:32;100500.88;;;9.10;67.55
35694;BME280;21812;55.536;37.664;2022-09-03T06:09:03;100515.22;;;9.25;67.73
35694;BME280;21812;55.536;37.664;2022-09-03T06:11:31;100514.44;;;9.33;67.80
35694;BME280;21812;55.536;37.664;2022-09-03T06:14:00;100505.59;;;9.32;66.91
35694;BME280;21812;55.536;37.664;2022-09-03T06:16:27;100520.25;;;9.36;67.13
35694;BME280;21812;55.536;37.664;2022-09-03T06:18:53;100507.44;;;9.40;66.97
35694;BME280;21812;55.536;37.664;2022-09-03T06:21:20;100516.97;;;9.43;66.62
35694;BME280;21812;55.536;37.664;2022-09-03T06:23:50;100515.31;;;9.50;67.11
35694;BME280;21812;55.536;37.664;2022-09-03T06:26:17;100528.00;;;9.56;66.92
35694;BME280;21812;55.536;37.664;2022-09-03T06:28:43;100522.16;;;9.61;67.12
35694;BME280;21812;55.536;37.664;2022-09-03T06:31:11;100503.66;;;9.51;66.83
35694;BME280;21812;55.536;37.664;2022-09-03T06:33:38;100523.03;;;9.69;66.28
35694;BME280;21812;55.536;37.664;2022-09-03T06:36:06;100521.03;;;9.71;65.88
35694;BME280;21812;55.536;37.664;2022-09-03T06:38:34;100481.00;;;9.47;65.35
35694;BME280;21812;55.536;37.664;2022-09-03T06:41:13;100519.69;;;9.75;65.14
35694;BME280;21812;55.536;37.664;2022-09-03T06:43:51;100524.84;;;9.85;65.16
35694;BME280;21812;55.536;37.664;2022-09-03T06:46:20;100517.00;;;9.84;65.01
35694;BME280;21812;55.536;37.664;2022-09-03T06:48:46;100525.03;;;9.92;65.24
35694;BME280;21812;55.536;37.664;2022-09-03T06:51:15;100500.34;;;9.82;65.11
35694;BME280;21812;55.536;37.664;2022-09-03T06:53:44;100488.50;;;9.68;64.24
35694;BME280;21812;55.536;37.664;2022-09-03T06:56:12;100519.34;;;10.03;63.90
35694;BME280;21812;55.536;37.664;2022-09-03T06:58:40;100533.84;;;10.09;63.54
35694;BME280;21812;55.536;37.664;2022-09-03T07:01:09;100529.38;;;10.17;63.04
35694;BME280;21812;55.536;37.664;2022-09-03T07:03:36;100533.38;;;10.22;62.91
35694;BME280;21812;55.536;37.664;2022-09-03T07:06:05;100497.00;;;10.04;62.19
35694;BME280;21812;55.536;37.664;2022-09-03T07:08:32;100531.84;;;10.27;62.07
35694;BME280;21812;55.536;37.664;2022-09-03T07:11:03;100489.00;;;10.12;62.63
35694;BME280;21812;55.536;37.664;2022-09-03T07:13:38;100488.34;;;10.18;61.96
35694;BME280;21812;55.536;37.664;2022-09-03T07:16:11;100525.38;;;10.38;61.67
35694;BME280;21812;55.536;37.664;2022-09-03T07:18:38;100525.03;;;10.49;63.30
35694;BME280;21812;55.536;37.664;2022-09-03T07:21:10;100522.00;;;10.61;61.10
35694;BME280;21812;55.536;37.664;2022-09-03T07:23:37;100494.50;;;10.44;60.35
35694;BME280;21812;55.536;37.664;2022-09-03T07:26:05;100503.00;;;10.47;63.82
35694;BME280;21812;55.536;37.664;2022-09-03T07:28:34;100503.59;;;10.66;60.52
35694;BME280;21812;55.536;37.664;2022-09-03T07:31:03;100504.22;;;10.84;59.44
35694;BME280;21812;55.536;37.664;2022-09-03T07:33:29;100545.88;;;11.10;58.17
35694;BME280;21812;55.536;37.664;2022-09-03T07:36:00;100544.91;;;11.03;58.02
35694;BME280;21812;55.536;37.664;2022-09-03T07:38:26;100524.25;;;10.88;58.39
35694;BME280;21812;55.536;37.664;2022-09-03T07:40:59;100534.78;;;10.90;59.99
35694;BME280;21812;55.536;37.664;2022-09-03T07:43:32;100536.13;;;10.86;58.58
35694;BME280;21812;55.536;37.664;2022-09-03T07:45:58;100525.94;;;10.89;58.90
35694;BME280;21812;55.536;37.664;2022-09-03T07:48:25;100539.25;;;10.98;58.45
35694;BME280;21812;55.536;37.664;2022-09-03T07:50:52;100525.56;;;11.01;57.98
35694;BME280;21812;55.536;37.664;2022-09-03T07:53:24;100524.53;;;11.02;57.47
35694;BME280;21812;55.536;37.664;2022-09-03T07:55:49;100518.16;;;11.11;58.26
35694;BME280;21812;55.536;37.664;2022-09-03T07:58:16;100519.13;;;11.18;60.19
35694;BME280;21812;55.536;37.664;2022-09-03T08:00:42;100520.28;;;11.15;56.38
35694;BME280;21812;55.536;37.664;2022-09-03T08:03:08;100516.97;;;11.13;56.73
35694;BME280;21812;55.536;37.664;2022-09-03T08:05:35;100481.28;;;10.98;56.89
35694;BME280;21812;55.536;37.664;2022-09-03T08:08:05;100514.88;;;11.32;57.09
35694;BME280;21812;55.536;37.664;2022-09-03T08:10:35;100505.25;;;11.46;58.90
35694;BME280;21812;55.536;37.664;2022-09-03T08:13:02;100508.00;;;11.61;57.77
35694;BME280;21812;55.536;37.664;2022-09-03T08:15:32;100514.78;;;11.71;55.89
35694;BME280;21812;55.536;37.664;2022-09-03T08:17:59;100518.38;;;11.64;55.36
35694;BME280;21812;55.536;37.664;2022-09-03T08:20:26;100509.69;;;11.62;55.67
35694;BME280;21812;55.536;37.664;2022-09-03T08:22:58;100514.56;;;11.58;55.26
35694;BME280;21812;55.536;37.664;2022-09-03T08:25:24;100505.88;;;11.56;55.31
35694;BME280;21812;55.536;37.664;2022-09-03T08:27:50;100505.16;;;11.62;54.37
35694;BME280;21812;55.536;37.664;2022-09-03T08:30:19;100504.63;;;11.67;54.06
35694;BME280;21812;55.536;37.664;2022-09-03T08:32:46;100505.47;;;11.67;53.42
35694;BME280;21812;55.536;37.664;2022-09-03T08:35:12;100506.78;;;11.71;54.03
35694;BME280;21812;55.536;37.664;2022-09-03T08:37:37;100507.72;;;11.79;55.70
35694;BME280;21812;55.536;37.664;2022-09-03T08:40:04;100498.03;;;11.78;53.23
35694;BME280;21812;55.536;37.664;2022-09-03T08:45:06;100509.69;;;12.08;52.77
35694;BME280;21812;55.536;37.664;2022-09-03T08:47:44;100507.41;;;12.20;52.61
35694;BME280;21812;55.536;37.664;2022-09-03T08:50:30;100502.88;;;12.20;51.66
35694;BME280;21812;55.536;37.664;2022-09-03T08:53:21;100495.50;;;12.37;52.26
35694;BME280;21812;55.536;37.664;2022-09-03T08:55:55;100498.97;;;12.61;51.64
35694;BME280;21812;55.536;37.664;2022-09-03T08:58:26;100469.56;;;12.52;50.29
35694;BME280;21812;55.536;37.664;2022-09-03T09:06:27;100495.63;;;12.88;51.12
35694;BME280;21812;55.536;37.664;2022-09-03T09:15:09;100493.38;;;13.22;49.15
35694;BME280;21812;55.536;37.664;2022-09-03T09:22:56;100465.97;;;13.26;47.36
35694;BME280;21812;55.536;37.664;2022-09-03T09:25:27;100480.19;;;13.42;47.35
35694;BME280;21812;55.536;37.664;2022-09-03T09:27:59;100485.91;;;13.54;47.77
35694;BME280;21812;55.536;37.664;2022-09-03T09:30:26;100486.88;;;13.67;47.40
35694;BME280;21812;55.536;37.664;2022-09-03T09:32:52;100482.41;;;13.75;47.10
35694;BME280;21812;55.536;37.664;2022-09-03T09:35:22;100491.97;;;13.84;47.91
35694;BME280;21812;55.536;37.664;2022-09-03T09:37:54;100463.59;;;13.75;47.14
35694;BME280;21812;55.536;37.664;2022-09-03T09:45:33;100479.66;;;14.18;45.49
35694;BME280;21812;55.536;37.664;2022-09-03T09:48:00;100493.97;;;14.25;44.25
35694;BME280;21812;55.536;37.664;2022-09-03T09:50:27;100479.09;;;14.29;43.99
35694;BME280;21812;55.536;37.664;2022-09-03T09:53:05;100472.31;;;14.33;43.73
35694;BME280;21812;55.536;37.664;2022-09-03T09:55:49;100452.50;;;14.34;43.38
35694;BME280;21812;55.536;37.664;2022-09-03T09:58:18;100445.94;;;14.43;43.56
35694;BME280;21812;55.536;37.664;2022-09-03T10:00:57;100453.91;;;14.58;43.17
35694;BME280;21812;55.536;37.664;2022-09-03T10:03:23;100467.81;;;14.69;43.93
35694;BME280;21812;55.536;37.664;2022-09-03T10:06:07;100448.19;;;14.68;43.71
35694;BME280;21812;55.536;37.664;2022-09-03T10:09:08;100464.72;;;15.20;43.29
35694;BME280;21812;55.536;37.664;2022-09-03T10:11:36;100461.28;;;15.46;42.51
35694;BME280;21812;55.536;37.664;2022-09-03T10:14:14;100450.53;;;15.73;42.57
35694;BME280;21812;55.536;37.664;2022-09-03T10:16:43;100444.56;;;16.11;41.71
35694;BME280;21812;55.536;37.664;2022-09-03T10:19:45;100424.63;;;16.25;41.49
35694;BME280;21812;55.536;37.664;2022-09-03T10:22:39;100454.91;;;15.74;40.73
35694;BME280;21812;55.536;37.664;2022-09-03T10:25:13;100464.56;;;15.35;41.73
35694;BME280;21812;55.536;37.664;2022-09-03T10:27:39;100464.47;;;15.08;41.49
35694;BME280;21812;55.536;37.664;2022-09-03T10:30:06;100468.06;;;14.80;42.50
35694;BME280;21812;55.536;37.664;2022-09-03T10:35:30;100444.66;;;15.22;41.47
35694;BME280;21812;55.536;37.664;2022-09-03T10:38:09;100452.75;;;15.29;41.01
35694;BME280;21812;55.536;37.664;2022-09-03T10:40:45;100466.53;;;15.06;41.47
35694;BME280;21812;55.536;37.664;2022-09-03T10:46:14;100463.31;;;14.82;41.68
35694;BME280;21812;55.536;37.664;2022-09-03T10:49:10;100476.34;;;14.79;42.14
35694;BME280;21812;55.536;37.664;2022-09-03T10:51:48;100450.97;;;14.53;42.08
35694;BME280;21812;55.536;37.664;2022-09-03T11:02:38;100464.31;;;14.68;42.39
35694;BME280;21812;55.536;37.664;2022-09-03T11:07:48;100471.31;;;14.69;42.39
35694;BME280;21812;55.536;37.664;2022-09-03T11:10:27;100474.44;;;14.66;42.13
35694;BME280;21812;55.536;37.664;2022-09-03T11:13:14;100453.84;;;14.52;41.94
35694;BME280;21812;55.536;37.664;2022-09-03T11:15:55;100482.69;;;14.64;42.04
35694;BME280;21812;55.536;37.664;2022-09-03T11:18:32;100452.56;;;14.47;41.97
35694;BME280;21812;55.536;37.664;2022-09-03T11:21:03;100439.88;;;14.63;41.90
35694;BME280;21812;55.536;37.664;2022-09-03T11:23:33;100463.63;;;15.89;41.26
35694;BME280;21812;55.536;37.664;2022-09-03T11:26:05;100436.66;;;16.94;38.29
35694;BME280;21812;55.536;37.664;2022-09-03T11:28:40;100457.44;;;18.21;35.97
35694;BME280;21812;55.536;37.664;2022-09-03T11:33:55;100435.84;;;19.56;34.24
35694;BME280;21812;55.536;37.664;2022-09-03T11:36:41;100432.75;;;20.06;33.74
35694;BME280;21812;55.536;37.664;2022-09-03T11:39:23;100402.31;;;20.39;31.69
35694;BME280;21812;55.536;37.664;2022-09-03T11:41:59;100427.03;;;20.78;31.45
35694;BME280;21812;55.536;37.664;2022-09-03T11:47:23;100389.00;;;20.14;31.11
35694;BME280;21812;55.536;37.664;2022-09-03T11:49:52;100406.31;;;19.89;32.09
35694;BME280;21812;55.536;37.664;2022-09-03T11:52:26;100386.31;;;19.79;32.64
35694;BME280;21812;55.536;37.664;2022-09-03T11:54:52;100412.28;;;19.68;32.88
35694;BME280;21812;55.536;37.664;2022-09-03T11:57:41;100406.81;;;19.86;31.98
35694;BME280;21812;55.536;37.664;2022-09-03T12:00:16;100407.41;;;19.34;32.00
35694;BME280;21812;55.536;37.664;2022-09-03T12:02:45;100406.50;;;19.52;32.73
35694;BME280;21812;55.536;37.664;2022-09-03T12:14:30;100412.63;;;18.87;34.08
35694;BME280;21812;55.536;37.664;2022-09-03T12:22:18;100345.53;;;18.59;34.28
35694;BME280;21812;55.536;37.664;2022-09-03T12:24:44;100385.72;;;18.74;35.19
35694;BME280;21812;55.536;37.664;2022-09-03T12:27:17;100389.19;;;18.63;34.63
35694;BME280;21812;55.536;37.664;2022-09-03T12:29:56;100384.91;;;18.55;34.54
35694;BME280;21812;55.536;37.664;2022-09-03T12:32:30;100332.94;;;17.97;34.80
35694;BME280;21812;55.536;37.664;2022-09-03T12:34:57;100375.59;;;18.32;35.99
35694;BME280;21812;55.536;37.664;2022-09-03T12:37:25;100367.94;;;18.48;35.03
35694;BME280;21812;55.536;37.664;2022-09-03T12:39:53;100352.69;;;18.53;34.78
35694;BME280;21812;55.536;37.664;2022-09-03T12:42:26;100331.38;;;18.27;35.23
35694;BME280;21812;55.536;37.664;2022-09-03T12:44:52;100374.69;;;18.57;34.50
35694;BME280;21812;55.536;37.664;2022-09-03T12:47:20;100357.34;;;18.46;35.24
35694;BME280;21812;55.536;37.664;2022-09-03T12:49:51;100379.00;;;18.28;35.26
35694;BME280;21812;55.536;37.664;2022-09-03T12:52:29;100338.91;;;17.81;35.89
35694;BME280;21812;55.536;37.664;2022-09-03T13:00:21;100373.47;;;18.16;35.73
35694;BME280;21812;55.536;37.664;2022-09-03T13:03:01;100373.19;;;17.81;36.20
35694;BME280;21812;55.536;37.664;2022-09-03T13:05:47;100366.81;;;17.50;37.04
35694;BME280;21812;55.536;37.664;2022-09-03T13:08:21;100382.69;;;17.01;37.94
35694;BME280;21812;55.536;37.664;2022-09-03T13:10:56;100373.69;;;16.75;38.31
35694;BME280;21812;55.536;37.664;2022-09-03T13:13:34;100371.88;;;16.63;38.67
35694;BME280;21812;55.536;37.664;2022-09-03T13:19:40;100371.13;;;17.26;38.05
35694;BME280;21812;55.536;37.664;2022-09-03T13:21:53;100379.41;;;16.92;39.05
35694;BME280;21812;55.536;37.664;2022-09-03T13:27:24;100370.34;;;16.73;39.00
35694;BME280;21812;55.536;37.664;2022-09-03T13:33:00;100345.56;;;16.51;39.29
35694;BME280;21812;55.536;37.664;2022-09-03T13:35:29;100357.50;;;16.75;38.95
35694;BME280;21812;55.536;37.664;2022-09-03T13:38:08;100336.16;;;17.63;38.08
35694;BME280;21812;55.536;37.664;2022-09-03T13:40:45;100343.00;;;18.46;37.17
35694;BME280;21812;55.536;37.664;2022-09-03T13:46:51;100350.44;;;18.13;37.06
35694;BME280;21812;55.536;37.664;2022-09-03T13:58:27;100342.66;;;17.80;40.26
35694;BME280;21812;55.536;37.664;2022-09-03T14:25:10;100321.06;;;16.59;39.31
35694;BME280;21812;55.536;37.664;2022-09-03T14:27:39;100318.22;;;16.48;42.58
35694;BME280;21812;55.536;37.664;2022-09-03T14:30:16;100291.78;;;16.25;39.97
35694;BME280;21812;55.536;37.664;2022-09-03T14:33:12;100320.09;;;16.40;40.70
35694;BME280;21812;55.536;37.664;2022-09-03T14:36:05;100326.56;;;16.39;43.44
35694;BME280;21812;55.536;37.664;2022-09-03T14:38:56;100321.22;;;16.19;41.04
35694;BME280;21812;55.536;37.664;2022-09-03T14:45:07;100278.44;;;15.85;42.09
35694;BME280;21812;55.536;37.664;2022-09-03T14:47:11;100317.91;;;16.24;51.02
35694;BME280;21812;55.536;37.664;2022-09-03T14:49:51;100299.25;;;16.16;43.14
35694;BME280;21812;55.536;37.664;2022-09-03T14:53:02;100309.97;;;16.36;43.53
35694;BME280;21812;55.536;37.664;2022-09-03T14:58:16;100306.03;;;16.38;49.58
35694;BME280;21812;55.536;37.664;2022-09-03T15:00:59;100306.66;;;16.34;43.04
35694;BME280;21812;55.536;37.664;2022-09-03T15:03:40;100312.22;;;16.39;46.58
35694;BME280;21812;55.536;37.664;2022-09-03T15:14:52;100308.72;;;16.38;46.98
35694;BME280;21812;55.536;37.664;2022-09-03T15:20:59;100309.09;;;16.49;44.02
35694;BME280;21812;55.536;37.664;2022-09-03T15:23:24;100285.41;;;16.06;47.28
35694;BME280;21812;55.536;37.664;2022-09-03T15:29:22;100319.78;;;16.17;45.11
35694;BME280;21812;55.536;37.664;2022-09-03T15:32:06;100309.00;;;16.17;44.43
35694;BME280;21812;55.536;37.664;2022-09-03T15:37:53;100277.22;;;15.74;47.45
35694;BME280;21812;55.536;37.664;2022-09-03T15:40:47;100289.41;;;15.83;52.38
35694;BME280;21812;55.536;37.664;2022-09-03T15:43:18;100282.78;;;15.92;53.34
35694;BME280;21812;55.536;37.664;2022-09-03T15:52:14;100311.38;;;15.27;48.76
35694;BME280;21812;55.536;37.664;2022-09-03T15:54:22;100279.94;;;15.00;50.33
35694;BME280;21812;55.536;37.664;2022-09-03T15:57:27;100316.31;;;15.10;51.06
35694;BME280;21812;55.536;37.664;2022-09-03T16:00:02;100310.94;;;15.23;50.87
35694;BME280;21812;55.536;37.664;2022-09-03T16:02:39;100315.94;;;15.19;51.43
35694;BME280;21812;55.536;37.664;2022-09-03T16:08:21;100291.47;;;14.88;54.58
35694;BME280;21812;55.536;37.664;2022-09-03T16:10:49;100314.69;;;15.22;54.46
35694;BME280;21812;55.536;37.664;2022-09-03T16:16:40;100324.19;;;15.24;54.61
35694;BME280;21812;55.536;37.664;2022-09-03T16:19:15;100324.22;;;15.31;55.13
35694;BME280;21812;55.536;37.664;2022-09-03T16:24:25;100314.66;;;15.02;55.89
35694;BME280;21812;55.536;37.664;2022-09-03T16:27:10;100297.28;;;14.91;53.68
35694;BME280;21812;55.536;37.664;2022-09-03T16:29:40;100321.88;;;14.88;53.71
35694;BME280;21812;55.536;37.664;2022-09-03T16:38:02;100322.72;;;15.02;57.10
35694;BME280;21812;55.536;37.664;2022-09-03T16:40:49;100325.03;;;15.12;57.32
35694;BME280;21812;55.536;37.664;2022-09-03T16:43:32;100329.34;;;14.99;55.31
35694;BME280;21812;55.536;37.664;2022-09-03T16:46:15;100331.63;;;14.96;57.06
35694;BME280;21812;55.536;37.664;2022-09-03T16:48:56;100339.47;;;14.91;56.61
35694;BME280;21812;55.536;37.664;2022-09-03T16:54:33;100341.31;;;14.90;57.83